createdAt,value
2018-10-03T00:00:26.630Z,20.17
2018-10-03T00:02:55.014Z,17.03
2018-10-03T00:05:23.400Z,17.27
2018-10-03T00:07:51.819Z,19.77
2018-10-03T00:10:20.261Z,18.53
2018-10-03T00:12:49.318Z,16.40
2018-10-03T00:15:17.899Z,23.40
2018-10-03T00:17:46.333Z,18.53
2018-10-03T00:20:14.722Z,22.80
2018-10-03T00:22:43.718Z,17.67
2018-10-03T00:25:12.158Z,19.43
2018-10-03T00:27:40.645Z,15.63
2018-10-03T00:30:09.283Z,15.77
2018-10-03T00:32:37.819Z,15.93
2018-10-03T00:35:06.435Z,19.80
2018-10-03T00:37:34.827Z,15.80
2018-10-03T00:40:03.810Z,18.60
2018-10-03T00:42:37.266Z,18.17
2018-10-03T00:45:06.450Z,20.70
2018-10-03T00:47:36.310Z,17.13
2018-10-03T00:50:13.517Z,17.47
2018-10-03T00:52:42.429Z,16.80
2018-10-03T00:55:15.735Z,16.20
2018-10-03T00:57:50.710Z,15.67
2018-10-03T01:00:20.472Z,16.20
2018-10-03T01:02:48.939Z,17.90
2018-10-03T01:05:17.353Z,16.37
2018-10-03T01:07:45.807Z,16.70
2018-10-03T01:10:14.249Z,16.13
2018-10-03T01:12:43.758Z,15.97
2018-10-03T01:15:12.242Z,16.60
2018-10-03T01:17:41.110Z,21.00
2018-10-03T01:20:09.501Z,18.03
2018-10-03T01:22:38.422Z,18.70
2018-10-03T01:25:06.798Z,19.10
2018-10-03T01:27:35.509Z,17.47
2018-10-03T01:30:05.473Z,17.43
2018-10-03T01:32:34.373Z,15.90
2018-10-03T01:35:02.869Z,17.07
2018-10-03T01:37:31.317Z,16.10
2018-10-03T01:39:59.698Z,20.60
2018-10-03T01:42:28.109Z,17.70
2018-10-03T01:44:56.701Z,21.70
2018-10-03T01:47:25.421Z,13.80
2018-10-03T01:49:54.430Z,18.30
2018-10-03T01:52:22.921Z,15.97
2018-10-03T01:54:51.359Z,14.70
2018-10-03T01:57:20.441Z,13.60
2018-10-03T01:59:48.845Z,15.27
2018-10-03T02:02:18.348Z,14.23
2018-10-03T02:04:46.832Z,13.43
2018-10-03T02:07:15.303Z,12.30
2018-10-03T02:09:44.773Z,13.47
2018-10-03T02:12:13.277Z,11.83
2018-10-03T02:14:41.711Z,13.77
2018-10-03T02:17:10.089Z,10.97
2018-10-03T02:19:38.486Z,14.07
2018-10-03T02:22:07.192Z,11.13
2018-10-03T02:24:36.157Z,12.47
2018-10-03T02:27:04.833Z,12.77
2018-10-03T02:29:33.269Z,10.53
2018-10-03T02:32:01.822Z,11.03
2018-10-03T02:34:30.352Z,11.53
2018-10-03T02:36:58.774Z,10.37
2018-10-03T02:39:27.181Z,11.30
2018-10-03T02:41:55.578Z,11.30
2018-10-03T02:44:24.089Z,13.80
2018-10-03T02:46:53.630Z,13.73
2018-10-03T02:49:22.185Z,12.93
2018-10-03T02:51:51.071Z,15.70
2018-10-03T02:54:20.951Z,16.07
2018-10-03T02:56:49.407Z,11.63
2018-10-03T02:59:18.561Z,9.67
2018-10-03T03:01:47.254Z,10.07
2018-10-03T03:04:15.686Z,9.83
2018-10-03T03:06:44.062Z,9.83
2018-10-03T03:09:14.231Z,8.80
2018-10-03T03:11:42.641Z,10.70
2018-10-03T03:14:11.557Z,10.70
2018-10-03T03:16:40.506Z,10.27
2018-10-03T03:19:11.641Z,11.13
2018-10-03T03:21:40.118Z,10.17
2018-10-03T03:24:08.542Z,9.27
2018-10-03T03:26:37.729Z,9.13
2018-10-03T03:29:06.241Z,10.93
2018-10-03T03:31:34.954Z,10.93
2018-10-03T03:34:03.315Z,8.77
2018-10-03T03:36:31.909Z,10.30
2018-10-03T03:39:00.364Z,9.27
2018-10-03T03:41:28.977Z,9.27
2018-10-03T03:43:57.353Z,8.67
2018-10-03T03:46:25.784Z,9.47
2018-10-03T03:48:54.197Z,7.40
2018-10-03T03:51:22.642Z,9.60
2018-10-03T03:53:51.033Z,9.33
2018-10-03T03:56:19.504Z,7.30
2018-10-03T03:58:47.896Z,8.03
2018-10-03T04:01:17.181Z,8.07
2018-10-03T04:03:45.575Z,7.53
2018-10-03T04:06:13.953Z,7.67
2018-10-03T04:08:42.729Z,6.70
2018-10-03T04:11:11.674Z,6.87
2018-10-03T04:13:40.070Z,9.07
2018-10-03T04:16:09.169Z,7.10
2018-10-03T04:18:37.650Z,6.33
2018-10-03T04:21:06.017Z,6.30
2018-10-03T04:23:35.721Z,7.17
2018-10-03T04:26:05.158Z,6.53
2018-10-03T04:28:33.534Z,6.80
2018-10-03T04:31:01.985Z,7.97
2018-10-03T04:33:30.615Z,6.67
2018-10-03T04:35:58.986Z,5.73
2018-10-03T04:38:28.414Z,6.33
2018-10-03T04:40:56.758Z,6.30
2018-10-03T04:43:25.220Z,8.20
2018-10-03T04:45:53.580Z,6.83
2018-10-03T04:48:22.130Z,6.80
2018-10-03T04:50:50.645Z,6.57
2018-10-03T04:53:20.026Z,7.83
2018-10-03T04:55:48.445Z,5.43
2018-10-03T04:58:16.809Z,6.40
2018-10-03T05:00:46.039Z,6.63
2018-10-03T05:03:14.411Z,4.70
2018-10-03T05:05:43.069Z,6.47
2018-10-03T05:08:11.538Z,4.43
2018-10-03T05:10:39.981Z,4.77
2018-10-03T05:13:08.629Z,4.50
2018-10-03T05:15:37.250Z,4.07
2018-10-03T05:18:05.890Z,4.40
2018-10-03T05:20:34.282Z,4.03
2018-10-03T05:23:03.105Z,4.33
2018-10-03T05:25:31.696Z,4.13
2018-10-03T05:28:00.266Z,4.30
2018-10-03T05:30:28.620Z,4.87
2018-10-03T05:32:57.270Z,4.20
2018-10-03T05:35:25.929Z,4.80
2018-10-03T05:37:55.066Z,4.63
2018-10-03T05:40:23.537Z,4.70
2018-10-03T05:42:51.982Z,4.70
2018-10-03T05:45:20.658Z,5.33
2018-10-03T05:47:49.017Z,5.00
2018-10-03T05:50:17.455Z,5.20
2018-10-03T05:52:45.853Z,5.53
2018-10-03T05:55:15.019Z,6.00
2018-10-03T05:57:44.049Z,5.60
2018-10-03T06:00:14.670Z,5.80
2018-10-03T06:02:43.125Z,5.60
2018-10-03T06:05:11.769Z,5.73
2018-10-03T06:07:40.170Z,5.37
2018-10-03T06:10:08.582Z,6.20
2018-10-03T06:12:37.030Z,6.63
2018-10-03T06:15:06.162Z,7.50
2018-10-03T06:17:35.361Z,10.33
2018-10-03T06:20:03.892Z,5.93
2018-10-03T06:22:32.259Z,6.33
2018-10-03T06:25:01.005Z,6.30
2018-10-03T06:27:30.122Z,8.90
2018-10-03T06:29:58.578Z,7.13
2018-10-03T06:32:27.002Z,7.77
2018-10-03T06:34:55.425Z,8.07
2018-10-03T06:37:23.829Z,8.10
2018-10-03T06:39:52.339Z,7.60
2018-10-03T06:42:20.967Z,8.50
2018-10-03T06:44:49.342Z,9.03
2018-10-03T06:47:17.899Z,8.67
2018-10-03T06:49:46.635Z,9.17
2018-10-03T06:52:15.177Z,8.87
2018-10-03T06:54:44.588Z,9.50
2018-10-03T06:57:13.315Z,10.13
2018-10-03T06:59:41.706Z,11.87
2018-10-03T07:02:10.592Z,10.93
2018-10-03T07:04:38.981Z,10.57
2018-10-03T07:07:07.325Z,10.57
2018-10-03T07:09:35.682Z,11.27
2018-10-03T07:12:04.054Z,13.43
2018-10-03T07:14:32.440Z,12.40
2018-10-03T07:17:01.379Z,11.80
2018-10-03T07:19:29.749Z,11.93
2018-10-03T07:21:59.937Z,13.37
2018-10-03T07:24:28.874Z,12.60
2018-10-03T07:26:58.345Z,13.67
2018-10-03T07:29:27.356Z,13.13
2018-10-03T07:31:56.788Z,18.60
2018-10-03T07:34:25.163Z,15.13
2018-10-03T07:36:53.573Z,13.93
2018-10-03T07:39:22.196Z,18.43
2018-10-03T07:41:50.694Z,27.20
2018-10-03T07:44:19.072Z,19.13
2018-10-03T07:46:47.701Z,18.93
2018-10-03T07:49:16.118Z,16.57
2018-10-03T07:51:44.538Z,15.20
2018-10-03T07:54:12.999Z,16.47
2018-10-03T07:56:41.505Z,19.50
2018-10-03T07:59:09.998Z,16.93
2018-10-03T08:01:38.350Z,18.53
2018-10-03T08:04:06.770Z,15.07
2018-10-03T08:06:35.125Z,16.07
2018-10-03T08:09:03.804Z,16.83
2018-10-03T08:11:32.474Z,27.17
2018-10-03T08:14:00.885Z,15.23
2018-10-03T08:16:29.710Z,17.23
2018-10-03T08:18:58.093Z,15.93
2018-10-03T08:21:27.350Z,16.07
2018-10-03T08:23:56.050Z,15.90
2018-10-03T08:26:24.450Z,18.23
2018-10-03T08:28:52.813Z,17.30
2018-10-03T08:31:24.918Z,12.83
2018-10-03T08:33:53.478Z,14.73
2018-10-03T08:36:23.473Z,13.73
2018-10-03T08:38:51.889Z,10.90
2018-10-03T08:41:20.396Z,13.53
2018-10-03T08:43:49.484Z,12.67
2018-10-03T08:46:17.885Z,11.90
2018-10-03T08:48:46.317Z,11.00
2018-10-03T08:51:14.778Z,12.17
2018-10-03T08:53:43.129Z,10.50
2018-10-03T08:56:11.946Z,11.97
2018-10-03T08:58:40.510Z,8.57
2018-10-03T09:01:08.926Z,10.83
2018-10-03T09:03:37.322Z,9.47
2018-10-03T09:06:06.678Z,8.00
2018-10-03T09:08:35.036Z,8.03
2018-10-03T09:11:03.548Z,8.23
2018-10-03T09:13:31.937Z,10.03
2018-10-03T09:16:00.346Z,9.33
2018-10-03T09:18:28.710Z,8.53
2018-10-03T09:20:57.551Z,7.33
2018-10-03T09:23:26.082Z,5.63
2018-10-03T09:25:54.621Z,6.43
2018-10-03T09:28:23.378Z,6.33
2018-10-03T09:30:51.979Z,9.17
2018-10-03T09:33:20.433Z,5.30
2018-10-03T09:35:48.961Z,5.53
2018-10-03T09:38:18.309Z,7.70
2018-10-03T09:40:46.749Z,6.97
2018-10-03T09:43:15.139Z,6.83
2018-10-03T09:45:43.542Z,6.93
2018-10-03T09:48:12.824Z,7.33
2018-10-03T09:50:42.061Z,5.43
2018-10-03T09:53:10.498Z,6.37
2018-10-03T09:55:39.034Z,5.83
2018-10-03T09:58:07.416Z,6.67
2018-10-03T10:00:41.125Z,7.13
2018-10-03T10:03:09.604Z,6.67
2018-10-03T10:05:37.962Z,5.73
2018-10-03T10:08:06.389Z,5.03
2018-10-03T10:10:34.763Z,5.73
2018-10-03T10:13:03.137Z,5.43
2018-10-03T10:15:33.922Z,7.53
2018-10-03T10:18:02.894Z,8.27
2018-10-03T10:20:31.308Z,7.47
2018-10-03T10:22:59.670Z,5.30
2018-10-03T10:25:28.092Z,4.37
2018-10-03T10:27:56.491Z,6.60
2018-10-03T10:30:24.889Z,5.30
2018-10-03T10:32:53.617Z,6.00
2018-10-03T10:35:21.985Z,5.47
2018-10-03T10:37:50.477Z,5.70
2018-10-03T10:40:18.858Z,4.57
2018-10-03T10:42:47.541Z,8.97
2018-10-03T10:45:15.861Z,4.63
2018-10-03T10:47:44.201Z,6.30
2018-10-03T10:50:12.764Z,8.90
2018-10-03T10:52:41.288Z,5.97
2018-10-03T10:55:09.670Z,8.33
2018-10-03T10:57:38.062Z,6.17
2018-10-03T11:00:06.430Z,8.20
2018-10-03T11:02:34.814Z,7.43
2018-10-03T11:05:03.145Z,5.37
2018-10-03T11:07:32.525Z,8.60
2018-10-03T11:10:01.299Z,7.77
2018-10-03T11:12:30.874Z,5.23
2018-10-03T11:15:00.153Z,6.00
2018-10-03T11:17:30.928Z,6.30
2018-10-03T11:19:59.285Z,5.23
2018-10-03T11:22:27.660Z,6.23
2018-10-03T11:24:56.115Z,7.23
2018-10-03T11:27:25.822Z,6.27
2018-10-03T11:29:54.218Z,4.57
2018-10-03T11:32:22.632Z,7.97
2018-10-03T11:34:51.027Z,4.70
2018-10-03T11:37:19.481Z,7.97
2018-10-03T11:39:48.118Z,5.50
2018-10-03T11:42:16.783Z,8.03
2018-10-03T11:44:45.359Z,7.60
2018-10-03T11:47:13.817Z,6.53
2018-10-03T11:49:42.190Z,5.87
2018-10-03T11:52:11.489Z,7.67
2018-10-03T11:54:39.877Z,5.00
2018-10-03T11:57:08.807Z,7.37
2018-10-03T11:59:37.363Z,5.13
2018-10-03T12:02:05.693Z,6.03
2018-10-03T12:04:34.321Z,4.37
2018-10-03T12:07:02.677Z,9.60
2018-10-03T12:09:31.740Z,5.13
2018-10-03T12:12:00.502Z,5.57
2018-10-03T12:14:28.865Z,4.43
2018-10-03T12:16:57.230Z,9.37
2018-10-03T12:19:25.590Z,7.40
2018-10-03T12:21:53.961Z,4.87
2018-10-03T12:24:22.301Z,4.47
2018-10-03T12:26:50.737Z,5.67
2018-10-03T12:29:19.244Z,6.00
2018-10-03T12:31:47.582Z,5.43
2018-10-03T12:34:15.979Z,5.80
2018-10-03T12:36:44.389Z,5.73
2018-10-03T12:39:13.678Z,5.80
2018-10-03T12:41:42.020Z,4.20
2018-10-03T12:44:10.413Z,10.30
2018-10-03T12:46:39.073Z,5.83
2018-10-03T12:49:07.499Z,8.93
2018-10-03T12:51:36.205Z,6.30
2018-10-03T12:54:05.450Z,4.60
2018-10-03T12:56:34.439Z,7.20
2018-10-03T12:59:02.857Z,4.13
2018-10-03T13:01:31.229Z,6.87
2018-10-03T13:03:59.676Z,4.67
2018-10-03T13:06:28.062Z,7.70
2018-10-03T13:08:56.487Z,4.70
2018-10-03T13:11:24.842Z,7.40
2018-10-03T13:13:53.212Z,9.60
2018-10-03T13:16:21.657Z,10.50
2018-10-03T13:18:50.042Z,8.57
2018-10-03T13:21:18.413Z,8.67
2018-10-03T13:23:46.792Z,6.63
2018-10-03T13:26:15.810Z,5.57
2018-10-03T13:28:44.323Z,10.90
2018-10-03T13:31:12.705Z,5.40
2018-10-03T13:33:41.413Z,7.23
2018-10-03T13:36:09.806Z,6.37
2018-10-03T13:38:38.182Z,8.20
2018-10-03T13:41:06.556Z,6.20
2018-10-03T13:43:34.901Z,5.00
2018-10-03T13:46:03.373Z,9.77
2018-10-03T13:48:32.133Z,5.20
2018-10-03T13:51:00.536Z,5.73
2018-10-03T13:53:28.938Z,5.47
2018-10-03T13:55:57.337Z,5.13
2018-10-03T13:58:25.747Z,6.60
2018-10-03T14:00:54.085Z,8.00
2018-10-03T14:03:22.473Z,5.93
2018-10-03T14:05:51.392Z,7.57
2018-10-03T14:08:19.819Z,6.50
2018-10-03T14:10:48.205Z,6.73
2018-10-03T14:13:16.630Z,6.97
2018-10-03T14:15:45.035Z,10.57
2018-10-03T14:18:13.494Z,7.27
2018-10-03T14:20:42.398Z,6.53
2018-10-03T14:23:10.796Z,8.70
2018-10-03T14:25:39.250Z,7.40
2018-10-03T14:28:07.672Z,8.13
2018-10-03T14:30:36.479Z,5.50
2018-10-03T14:33:04.985Z,7.30
2018-10-03T14:35:33.871Z,5.67
2018-10-03T14:38:02.537Z,12.53
2018-10-03T14:40:30.876Z,6.50
2018-10-03T14:42:59.268Z,10.60
2018-10-03T14:45:27.602Z,5.93
2018-10-03T14:47:56.228Z,5.57
2018-10-03T14:50:24.578Z,6.33
2018-10-03T14:52:53.082Z,7.93
2018-10-03T14:55:21.569Z,5.10
2018-10-03T14:57:49.914Z,6.17
2018-10-03T15:00:18.445Z,6.00
2018-10-03T15:02:46.827Z,6.37
2018-10-03T15:05:15.241Z,6.30
2018-10-03T15:07:43.585Z,7.17
2018-10-03T15:10:11.990Z,6.60
2018-10-03T15:12:40.414Z,6.63
2018-10-03T15:15:08.812Z,7.50
2018-10-03T15:17:37.193Z,7.63
2018-10-03T15:20:06.038Z,6.17
2018-10-03T15:22:34.393Z,14.00
2018-10-03T15:25:02.775Z,7.43
2018-10-03T15:27:31.133Z,6.47
2018-10-03T15:29:59.510Z,5.53
2018-10-03T15:32:28.073Z,10.17
2018-10-03T15:34:56.464Z,8.83
2018-10-03T15:37:24.937Z,6.73
2018-10-03T15:39:53.315Z,6.27
2018-10-03T15:42:21.659Z,15.63
2018-10-03T15:44:50.079Z,19.93
2018-10-03T15:47:18.602Z,4.80
2018-10-03T15:49:46.953Z,9.33
2018-10-03T15:52:15.285Z,9.87
2018-10-03T15:54:43.649Z,6.63
2018-10-03T15:57:12.037Z,7.43
2018-10-03T15:59:40.406Z,8.83
2018-10-03T16:02:08.774Z,9.67
2018-10-03T16:04:37.425Z,8.60
2018-10-03T16:07:06.214Z,7.00
2018-10-03T16:09:34.656Z,7.17
2018-10-03T16:12:03.498Z,8.63
2018-10-03T16:14:31.949Z,6.13
2018-10-03T16:17:00.302Z,8.43
2018-10-03T16:19:28.698Z,9.17
2018-10-03T16:21:57.093Z,9.43
2018-10-03T16:24:25.481Z,7.73
2018-10-03T16:26:53.850Z,7.97
2018-10-03T16:29:22.193Z,7.17
2018-10-03T16:31:50.609Z,7.03
2018-10-03T16:34:19.030Z,4.40
2018-10-03T16:49:55.197Z,10.23
2018-10-03T16:52:23.723Z,6.73
2018-10-03T16:54:52.193Z,6.03
2018-10-03T16:57:20.639Z,9.83
2018-10-03T16:59:49.132Z,9.67
2018-10-03T17:02:17.645Z,8.00
2018-10-03T17:04:46.113Z,6.13
2018-10-03T17:07:14.582Z,8.57
2018-10-03T17:09:43.683Z,5.83
2018-10-03T17:12:14.372Z,8.67
2018-10-03T17:14:42.878Z,9.93
2018-10-03T17:17:11.619Z,4.17
2018-10-03T17:19:40.532Z,5.50
2018-10-03T17:22:09.958Z,5.43
2018-10-03T17:24:39.031Z,8.27
2018-10-03T17:27:07.519Z,7.47
2018-10-03T17:29:35.942Z,6.50
2018-10-03T17:32:04.552Z,10.37
2018-10-03T17:34:33.041Z,7.53
2018-10-03T17:37:01.565Z,10.00
2018-10-03T17:39:30.116Z,12.67
2018-10-03T17:41:58.764Z,19.33
2018-10-03T17:44:27.271Z,20.40
2018-10-03T17:46:59.109Z,17.23
2018-10-03T17:49:27.636Z,13.90
2018-10-03T17:51:56.157Z,9.30
2018-10-03T17:54:24.668Z,11.20
2018-10-03T17:56:53.184Z,9.07
2018-10-03T17:59:21.685Z,68.83
2018-10-03T18:01:52.143Z,36.73
2018-10-03T18:04:20.652Z,17.93
2018-10-03T18:06:49.130Z,10.37
2018-10-03T18:09:17.650Z,9.03
2018-10-03T18:11:46.151Z,8.00
2018-10-03T18:14:15.912Z,11.13
2018-10-03T18:16:46.259Z,12.63
2018-10-03T18:19:14.716Z,14.50
2018-10-03T18:21:43.244Z,14.03
2018-10-03T18:24:11.750Z,10.20
2018-10-03T18:26:40.273Z,9.60
2018-10-03T18:29:08.766Z,9.00
2018-10-03T18:31:38.134Z,10.13
2018-10-03T18:34:06.636Z,8.20
2018-10-03T18:36:35.205Z,7.57
2018-10-03T18:39:05.531Z,7.93
2018-10-03T18:41:34.081Z,13.57
2018-10-03T18:44:02.533Z,7.73
2018-10-03T18:46:31.015Z,10.40
2018-10-03T18:48:59.502Z,9.73
2018-10-03T18:51:28.012Z,11.67
2018-10-03T18:53:56.481Z,12.20
2018-10-03T18:56:24.940Z,42.87
2018-10-03T18:58:53.538Z,18.97
2018-10-03T19:01:22.108Z,40.83
2018-10-03T19:03:50.587Z,29.30
2018-10-03T19:06:20.000Z,20.23
2018-10-03T19:08:48.501Z,15.23
2018-10-03T19:11:17.047Z,9.77
2018-10-03T19:13:45.708Z,12.43
2018-10-03T19:16:16.396Z,13.10
2018-10-03T19:18:44.824Z,11.57
2018-10-03T19:21:14.055Z,11.60
2018-10-03T19:23:42.584Z,17.37
2018-10-03T19:26:11.351Z,14.63
2018-10-03T19:28:39.810Z,9.17
2018-10-03T19:31:08.504Z,11.73
2018-10-03T19:33:37.087Z,11.93
2018-10-03T19:36:05.935Z,13.67
2018-10-03T19:38:34.932Z,9.13
2018-10-03T19:41:03.421Z,11.50
2018-10-03T19:43:31.971Z,10.87
2018-10-03T19:46:00.437Z,10.33
2018-10-03T19:48:29.108Z,10.33
2018-10-03T19:50:57.572Z,12.57
2018-10-03T19:53:31.435Z,12.20
2018-10-03T19:56:00.500Z,11.33
2018-10-03T19:58:29.017Z,13.50
2018-10-03T20:00:57.764Z,15.57
2018-10-03T20:03:26.476Z,12.20
2018-10-03T20:05:57.900Z,8.83
2018-10-03T20:08:26.375Z,13.63
2018-10-03T20:10:54.837Z,9.47
2018-10-03T20:13:23.309Z,12.10
2018-10-03T20:15:53.381Z,11.70
2018-10-03T20:18:23.072Z,11.83
2018-10-03T20:20:52.708Z,9.83
2018-10-03T20:23:22.096Z,13.50
2018-10-03T20:25:50.664Z,17.73
2018-10-03T20:28:19.172Z,14.23
2018-10-03T20:30:47.973Z,14.03
2018-10-03T20:33:16.415Z,13.67
2018-10-03T20:35:44.902Z,15.90
2018-10-03T20:38:13.726Z,18.80
2018-10-03T20:40:43.144Z,15.43
2018-10-03T20:43:11.799Z,20.80
2018-10-03T20:45:40.429Z,19.97
2018-10-03T20:48:10.166Z,14.53
2018-10-03T20:50:38.780Z,9.60
2018-10-03T20:53:07.913Z,11.87
2018-10-03T20:55:36.724Z,13.93
2018-10-03T20:58:05.417Z,13.47
2018-10-03T21:00:34.051Z,13.50
2018-10-03T21:03:03.634Z,13.43
2018-10-03T21:05:32.237Z,11.80
2018-10-03T21:08:00.924Z,12.00
2018-10-03T21:10:29.672Z,14.90
2018-10-03T21:12:58.331Z,14.47
2018-10-03T21:15:27.024Z,12.67
2018-10-03T21:17:56.297Z,11.53
2018-10-03T21:20:24.835Z,11.27
2018-10-03T21:22:53.630Z,12.73
2018-10-03T21:25:23.686Z,13.30
2018-10-03T21:27:52.525Z,14.10
2018-10-03T21:30:21.557Z,12.33
2018-10-03T21:32:50.085Z,12.80
2018-10-03T21:35:18.564Z,8.83
2018-10-03T21:37:47.117Z,12.50
2018-10-03T21:40:15.600Z,13.60
2018-10-03T21:42:44.009Z,8.87
2018-10-03T21:45:12.601Z,9.00
2018-10-03T21:47:41.063Z,16.93
2018-10-03T21:50:09.600Z,10.40
2018-10-03T21:52:38.122Z,10.90
2018-10-03T21:55:07.297Z,13.10
2018-10-03T21:57:35.730Z,10.30
2018-10-03T22:00:04.488Z,13.73
2018-10-03T22:02:32.960Z,13.37
2018-10-03T22:05:01.489Z,15.40
2018-10-03T22:07:29.968Z,14.77
2018-10-03T22:09:58.471Z,13.23
2018-10-03T22:12:27.163Z,12.27
2018-10-03T22:14:55.725Z,45.43
2018-10-03T22:17:25.235Z,11.77
2018-10-03T22:19:56.037Z,12.37
2018-10-03T22:22:24.505Z,12.23
2018-10-03T22:24:53.008Z,9.77
2018-10-03T22:27:21.462Z,12.73
2018-10-03T22:29:49.958Z,17.53
2018-10-03T22:32:18.463Z,11.43
2018-10-03T22:34:47.006Z,12.37
2018-10-03T22:37:16.251Z,12.83
2018-10-03T22:39:45.231Z,8.93
2018-10-03T22:42:13.751Z,10.60
2018-10-03T22:44:42.373Z,11.33
2018-10-03T22:47:10.863Z,10.00
2018-10-03T22:49:39.411Z,9.23
2018-10-03T22:52:08.129Z,10.83
2018-10-03T22:54:36.644Z,11.20
2018-10-03T22:57:05.143Z,12.47
2018-10-03T22:59:33.663Z,8.70
2018-10-03T23:02:02.133Z,10.30
2018-10-03T23:04:30.819Z,11.77
2018-10-03T23:06:59.375Z,8.00
2018-10-03T23:09:27.919Z,8.73
2018-10-03T23:11:56.372Z,7.20
2018-10-03T23:14:24.939Z,11.10
2018-10-03T23:16:54.919Z,8.70
2018-10-03T23:19:23.735Z,9.63
2018-10-03T23:21:52.183Z,8.83
2018-10-03T23:24:20.683Z,10.27
2018-10-03T23:26:49.225Z,10.63
2018-10-03T23:29:17.723Z,8.07
2018-10-03T23:31:46.210Z,9.20
2018-10-03T23:34:14.719Z,9.27
2018-10-03T23:36:43.679Z,9.13
2018-10-03T23:39:12.879Z,10.67
2018-10-03T23:41:41.618Z,9.37
2018-10-03T23:44:10.524Z,9.70
2018-10-03T23:46:40.036Z,9.30
2018-10-03T23:49:10.261Z,13.93
2018-10-03T23:51:38.836Z,9.33
2018-10-03T23:54:07.320Z,10.73
2018-10-03T23:56:36.711Z,6.33
2018-10-03T23:59:05.196Z,14.00
